createdAt,value
2022-12-19T00:03:07.435Z,23.73
2022-12-19T00:08:19.019Z,26.15
2022-12-19T00:13:21.055Z,26.65
2022-12-19T00:18:23.098Z,26.85
2022-12-19T00:23:25.847Z,24.95
2022-12-19T00:28:27.912Z,24.63
2022-12-19T00:33:30.008Z,23.67
2022-12-19T00:38:33.401Z,24.10
2022-12-19T00:43:37.022Z,26.70
2022-12-19T00:48:39.151Z,23.00
2022-12-19T00:53:41.761Z,24.13
2022-12-19T00:58:47.180Z,21.80
2022-12-19T01:04:25.965Z,23.15
2022-12-19T01:09:12.382Z,21.48
2022-12-19T01:14:22.313Z,21.85
2022-12-19T01:19:26.764Z,21.48
2022-12-19T01:24:28.886Z,22.45
2022-12-19T01:29:32.570Z,21.80
2022-12-19T01:34:36.676Z,21.92
2022-12-19T01:39:39.097Z,21.77
2022-12-19T01:45:03.787Z,22.55
2022-12-19T01:50:06.314Z,22.17
2022-12-19T01:55:09.301Z,22.40
2022-12-19T02:00:12.591Z,21.55
2022-12-19T02:05:15.104Z,23.38
2022-12-19T02:10:18.109Z,22.15
2022-12-19T02:15:20.751Z,22.67
2022-12-19T02:20:42.466Z,22.10
2022-12-19T02:31:16.547Z,22.42
2022-12-19T02:36:28.445Z,23.10
2022-12-19T02:41:55.042Z,23.58
2022-12-19T02:47:03.343Z,21.65
2022-12-19T02:52:32.894Z,21.55
2022-12-19T02:58:04.359Z,20.33
2022-12-19T03:03:11.051Z,21.73
2022-12-19T03:08:27.817Z,22.13
2022-12-19T03:14:00.675Z,21.13
2022-12-19T03:19:04.264Z,22.67
2022-12-19T03:24:09.336Z,21.92
2022-12-19T03:29:21.574Z,20.45
2022-12-19T03:34:29.547Z,20.25
2022-12-19T03:39:32.713Z,20.88
2022-12-19T03:44:38.998Z,20.67
2022-12-19T03:49:41.532Z,20.30
2022-12-19T03:54:50.427Z,21.20
2022-12-19T04:00:00.239Z,20.48
2022-12-19T04:05:07.268Z,21.38
2022-12-19T04:10:14.632Z,21.63
2022-12-19T04:15:17.101Z,23.13
2022-12-19T04:20:22.158Z,22.67
2022-12-19T04:25:29.873Z,21.67
2022-12-19T04:30:36.960Z,20.55
2022-12-19T04:35:39.232Z,23.60
2022-12-19T04:40:41.911Z,24.77
2022-12-19T04:45:44.300Z,24.50
2022-12-19T04:50:46.761Z,21.98
2022-12-19T04:55:48.799Z,22.08
2022-12-19T05:00:50.986Z,20.58
2022-12-19T05:05:53.031Z,21.52
2022-12-19T05:10:59.414Z,21.95
2022-12-19T05:16:03.722Z,25.40
2022-12-19T05:21:06.468Z,23.88
2022-12-19T05:26:08.531Z,24.35
2022-12-19T05:31:13.854Z,23.92
2022-12-19T05:36:17.054Z,23.13
2022-12-19T05:41:20.686Z,22.08
2022-12-19T05:46:24.089Z,22.25
2022-12-19T05:51:26.114Z,23.30
2022-12-19T05:56:28.140Z,22.27
2022-12-19T06:01:30.352Z,21.38
2022-12-19T06:06:32.445Z,21.50
2022-12-19T06:11:34.491Z,20.95
2022-12-19T06:16:36.616Z,21.02
2022-12-19T06:21:45.524Z,20.85
2022-12-19T06:26:49.880Z,21.17
2022-12-19T06:31:51.961Z,21.92
2022-12-19T06:36:54.043Z,21.58
2022-12-19T06:42:14.852Z,22.38
2022-12-19T06:47:17.168Z,22.95
2022-12-19T06:52:19.250Z,23.58
2022-12-19T06:57:21.422Z,19.95
2022-12-19T07:02:30.119Z,23.80
2022-12-19T07:07:32.916Z,20.50
2022-12-19T07:12:35.545Z,20.23
2022-12-19T07:17:38.307Z,19.63
2022-12-19T07:22:41.360Z,19.85
2022-12-19T07:27:44.805Z,18.85
2022-12-19T07:32:46.841Z,19.20
2022-12-19T07:37:50.200Z,18.90
2022-12-19T07:42:52.329Z,18.77
2022-12-19T07:47:54.407Z,18.65
2022-12-19T07:52:58.266Z,19.40
2022-12-19T07:58:00.562Z,19.48
2022-12-19T08:03:02.713Z,19.83
2022-12-19T08:08:05.021Z,16.77
2022-12-19T08:13:07.645Z,17.55
2022-12-19T08:18:09.716Z,19.50
2022-12-19T08:23:11.813Z,18.50
2022-12-19T08:28:13.805Z,17.33
2022-12-19T08:33:16.008Z,17.50
2022-12-19T08:38:18.114Z,17.60
2022-12-19T08:43:20.922Z,17.90
2022-12-19T08:48:23.859Z,20.55
2022-12-19T08:53:28.418Z,19.13
2022-12-19T08:58:30.878Z,17.45
2022-12-19T09:03:52.000Z,16.95
2022-12-19T09:09:00.439Z,18.08
2022-12-19T09:14:02.698Z,17.80
2022-12-19T09:19:04.749Z,18.98
2022-12-19T09:24:08.106Z,17.52
2022-12-19T09:29:19.870Z,17.08
2022-12-19T09:34:33.230Z,16.65
2022-12-19T09:39:40.752Z,17.08
2022-12-19T09:45:02.915Z,16.95
2022-12-19T09:50:22.586Z,16.17
2022-12-19T09:55:31.464Z,18.95
2022-12-19T10:01:00.060Z,16.10
2022-12-19T10:07:10.624Z,18.13
2022-12-19T10:12:38.647Z,15.68
2022-12-19T10:17:24.622Z,15.27
2022-12-19T10:22:37.537Z,14.25
2022-12-19T10:28:00.498Z,14.77
2022-12-19T10:33:20.289Z,14.23
2022-12-19T10:38:39.307Z,14.07
2022-12-19T10:44:02.578Z,14.65
2022-12-19T10:49:13.109Z,15.30
2022-12-19T10:54:15.111Z,13.98
2022-12-19T10:59:19.469Z,14.32
2022-12-19T11:04:33.935Z,12.93
2022-12-19T11:09:38.930Z,13.20
2022-12-19T11:17:02.355Z,14.60
2022-12-19T11:29:40.888Z,14.68
2022-12-19T11:30:59.414Z,14.25
2022-12-19T11:36:49.901Z,12.93
2022-12-19T11:42:23.456Z,12.27
2022-12-19T11:47:48.512Z,12.75
2022-12-19T11:53:11.354Z,11.48
2022-12-19T11:58:18.834Z,10.73
2022-12-19T12:04:02.027Z,10.45
2022-12-19T12:11:06.981Z,10.63
2022-12-19T12:24:50.981Z,9.32
2022-12-19T12:31:09.556Z,9.83
2022-12-19T12:31:47.162Z,9.77
2022-12-19T12:35:33.021Z,7.95
2022-12-19T12:43:39.621Z,7.13
2022-12-19T12:48:47.850Z,5.60
2022-12-19T12:53:56.876Z,5.82
2022-12-19T12:59:01.955Z,5.70
2022-12-19T13:04:12.875Z,5.57
2022-12-19T13:09:17.734Z,5.60
2022-12-19T13:14:35.203Z,5.25
2022-12-19T13:19:39.460Z,5.28
2022-12-19T13:24:44.391Z,5.65
2022-12-19T13:30:04.675Z,5.30
2022-12-19T13:36:38.573Z,4.90
2022-12-19T13:40:43.639Z,4.88
2022-12-19T13:45:57.651Z,5.00
2022-12-19T13:51:08.561Z,4.90
2022-12-19T13:56:15.906Z,4.45
2022-12-19T14:01:42.645Z,4.35
2022-12-19T14:06:49.416Z,4.40
2022-12-19T14:13:46.273Z,4.53
2022-12-19T14:17:17.071Z,4.70
2022-12-19T14:22:25.327Z,4.43
2022-12-19T14:28:19.825Z,4.38
2022-12-19T14:33:43.625Z,4.63
2022-12-19T14:39:21.194Z,4.20
2022-12-19T14:44:00.581Z,4.18
2022-12-19T14:54:10.123Z,4.60
2022-12-19T14:56:19.548Z,4.05
2022-12-19T15:01:09.805Z,3.97
2022-12-19T15:06:19.889Z,3.75
2022-12-19T15:14:46.690Z,4.30
2022-12-19T15:17:28.619Z,4.00
2022-12-19T15:22:30.669Z,3.75
2022-12-19T15:27:32.836Z,4.10
2022-12-19T15:32:34.998Z,4.03
2022-12-19T15:37:37.111Z,4.55
2022-12-19T15:42:39.216Z,5.18
2022-12-19T15:47:43.050Z,5.70
2022-12-19T15:52:45.232Z,5.05
2022-12-19T15:58:00.457Z,4.85
2022-12-19T16:08:28.231Z,5.40
2022-12-19T16:13:36.403Z,5.72
2022-12-19T16:18:38.592Z,5.22
2022-12-19T16:23:40.670Z,5.32
2022-12-19T16:28:42.698Z,5.95
2022-12-19T16:33:44.739Z,7.35
2022-12-19T16:38:47.104Z,8.57
2022-12-19T16:43:49.731Z,5.30
2022-12-19T16:48:51.915Z,4.68
2022-12-19T16:53:58.809Z,4.70
2022-12-19T16:59:04.452Z,4.57
2022-12-19T17:04:06.660Z,5.25
2022-12-19T17:09:15.535Z,4.50
2022-12-19T17:14:20.950Z,4.68
2022-12-19T17:19:27.249Z,4.80
2022-12-19T17:24:29.500Z,6.28
2022-12-19T17:29:31.844Z,4.55
2022-12-19T17:34:34.432Z,4.57
2022-12-19T17:39:37.821Z,4.63
2022-12-19T17:44:40.238Z,4.82
2022-12-19T17:49:42.845Z,4.07
2022-12-19T17:54:45.019Z,4.35
2022-12-19T17:59:47.158Z,4.63
2022-12-19T18:04:50.590Z,5.45
2022-12-19T18:09:52.598Z,5.40
2022-12-19T18:14:54.987Z,5.00
2022-12-19T18:19:57.092Z,5.10
2022-12-19T18:24:59.333Z,4.90
2022-12-19T18:30:01.369Z,4.88
2022-12-19T18:35:03.871Z,5.10
2022-12-19T18:40:23.291Z,5.15
2022-12-19T18:45:35.259Z,5.20
2022-12-19T18:50:37.397Z,4.75
2022-12-19T18:55:39.983Z,5.30
2022-12-19T19:00:42.285Z,4.93
2022-12-19T19:05:45.320Z,5.05
2022-12-19T19:10:49.202Z,5.20
2022-12-19T19:15:56.815Z,5.05
2022-12-19T19:21:01.441Z,5.68
2022-12-19T19:26:04.100Z,6.00
2022-12-19T19:31:11.281Z,5.40
2022-12-19T19:36:18.596Z,5.50
2022-12-19T19:41:20.945Z,5.30
2022-12-19T19:46:23.148Z,5.20
2022-12-19T19:51:25.351Z,5.45
2022-12-19T19:56:27.378Z,5.80
2022-12-19T20:01:29.529Z,5.60
2022-12-19T20:06:31.974Z,5.50
2022-12-19T20:11:34.090Z,5.45
2022-12-19T20:16:36.233Z,5.22
2022-12-19T20:21:38.309Z,4.90
2022-12-19T20:26:40.533Z,5.63
2022-12-19T20:31:42.844Z,4.88
2022-12-19T20:36:45.153Z,5.20
2022-12-19T20:41:49.183Z,5.63
2022-12-19T20:46:52.523Z,5.40
2022-12-19T20:51:54.899Z,5.38
2022-12-19T20:56:57.085Z,5.90
2022-12-19T21:02:00.657Z,5.47
2022-12-19T21:07:03.107Z,5.65
2022-12-19T21:12:05.337Z,5.30
2022-12-19T21:17:07.397Z,5.45
2022-12-19T21:22:09.555Z,5.93
2022-12-19T21:27:11.541Z,5.55
2022-12-19T21:32:18.798Z,7.90
2022-12-19T21:37:21.342Z,6.88
2022-12-19T21:42:23.375Z,7.90
2022-12-19T21:47:25.365Z,7.95
2022-12-19T21:52:27.538Z,8.02
2022-12-19T21:57:29.611Z,5.57
2022-12-19T22:02:31.857Z,5.78
2022-12-19T22:07:34.553Z,5.57
2022-12-19T22:12:36.621Z,5.38
2022-12-19T22:17:38.710Z,5.75
2022-12-19T22:22:40.789Z,4.95
2022-12-19T22:27:42.829Z,4.57
2022-12-19T22:32:44.835Z,4.82
2022-12-19T22:37:46.941Z,4.97
2022-12-19T22:42:49.096Z,4.38
2022-12-19T22:47:51.125Z,4.55
2022-12-19T22:52:53.150Z,4.70
2022-12-19T22:57:55.390Z,8.50
2022-12-19T23:02:57.556Z,4.43
2022-12-19T23:07:59.707Z,15.32
2022-12-19T23:13:01.695Z,4.97
2022-12-19T23:18:03.826Z,4.43
2022-12-19T23:23:05.852Z,4.40
2022-12-19T23:28:09.145Z,4.30
2022-12-19T23:33:11.250Z,4.25
2022-12-19T23:38:13.377Z,3.90
2022-12-19T23:43:15.740Z,3.95
2022-12-19T23:48:17.945Z,3.75
2022-12-19T23:53:20.019Z,3.90
2022-12-19T23:58:24.955Z,3.72
